Time,TemperatureF,DewpointF,PressureIn,WindDirection,WindDirectionDegrees,WindSpeedMPH,WindSpeedGustMPH,Humidity,HourlyPrecipIn,Conditions,Clouds,dailyrainin,SoftwareType,DateUTC
2013-02-21 00:01:00,31.8,16.2,30.13,ESE,113,7.0,7.0,52,0.00,,,0.00,meteohub,2013-02-21 06:01:00,
2013-02-21 00:07:00,31.5,15.8,30.13,East,90,2.0,7.0,52,0.00,,,0.00,meteohub,2013-02-21 06:07:00,
2013-02-21 00:12:00,31.5,16.3,30.13,East,90,8.0,8.0,53,0.00,,,0.00,meteohub,2013-02-21 06:12:00,
2013-02-21 00:17:00,31.1,16.3,30.13,ESE,113,6.0,7.0,54,0.00,,,0.00,meteohub,2013-02-21 06:17:00,
2013-02-21 00:22:00,31.1,17.2,30.13,SE,135,3.0,9.0,56,0.00,,,0.00,meteohub,2013-02-21 06:22:00,
2013-02-21 00:27:00,30.7,16.9,30.14,ESE,113,2.0,9.0,56,0.00,,,0.00,meteohub,2013-02-21 06:27:00,
2013-02-21 00:32:00,30.7,17.2,30.14,SE,135,3.0,6.0,57,0.00,,,0.00,meteohub,2013-02-21 06:32:00,
2013-02-21 00:37:00,30.7,17.2,30.14,East,90,2.0,4.0,57,0.00,,,0.00,meteohub,2013-02-21 06:37:00,
2013-02-21 00:42:00,30.7,17.2,30.14,ESE,113,3.0,4.0,57,0.00,,,0.00,meteohub,2013-02-21 06:42:00,
2013-02-21 00:47:00,30.7,17.8,30.13,ESE,113,3.0,4.0,58,0.00,,,0.00,meteohub,2013-02-21 06:47:00,
2013-02-21 00:52:00,30.7,17.2,30.13,NE,45,2.0,4.0,57,0.00,,,0.00,meteohub,2013-02-21 06:52:00,
2013-02-21 00:57:00,31.1,17.6,30.13,SSE,158,2.0,4.0,57,0.00,,,0.00,meteohub,2013-02-21 06:57:00,
2013-02-21 01:02:00,31.1,17.6,30.13,ESE,113,3.0,4.0,57,0.00,,,0.00,meteohub,2013-02-21 07:02:00,
2013-02-21 01:07:00,30.7,17.2,30.11,ESE,113,7.0,7.0,57,0.00,,,0.00,meteohub,2013-02-21 07:07:00,
2013-02-21 01:12:00,30.7,17.2,30.11,SE,135,6.0,7.0,57,0.00,,,0.00,meteohub,2013-02-21 07:12:00,
2013-02-21 01:17:00,30.6,17.1,30.12,NE,45,2.0,7.0,57,0.00,,,0.00,meteohub,2013-02-21 07:17:00,
2013-02-21 01:22:00,30.7,17.2,30.11,ESE,113,4.0,7.0,57,0.00,,,0.00,meteohub,2013-02-21 07:22:00,
2013-02-21 01:27:00,30.4,17.4,30.12,SE,135,5.0,6.0,58,0.00,,,0.00,meteohub,2013-02-21 07:27:00,
2013-02-21 01:32:00,30.4,17.4,30.12,SE,135,1.0,5.0,58,0.00,,,0.00,meteohub,2013-02-21 07:32:00,
2013-02-21 01:37:00,30.7,17.8,30.12,SE,135,4.0,5.0,58,0.00,,,0.00,meteohub,2013-02-21 07:37:00,
2013-02-21 01:42:00,30.7,17.8,30.12,SE,135,3.0,5.0,58,0.00,,,0.00,meteohub,2013-02-21 07:42:00,
2013-02-21 01:47:00,30.4,17.4,30.10,NE,45,6.0,9.0,58,0.00,,,0.00,meteohub,2013-02-21 07:47:00,
2013-02-21 01:52:00,30.4,17.4,30.10,East,90,6.0,9.0,58,0.00,,,0.00,meteohub,2013-02-21 07:52:00,
2013-02-21 01:57:00,30.4,17.4,30.10,ESE,113,5.0,12.0,58,0.00,,,0.00,meteohub,2013-02-21 07:57:00,
2013-02-21 02:02:00,30.2,17.6,30.10,East,90,5.0,12.0,59,0.00,,,0.00,meteohub,2013-02-21 08:02:00,
2013-02-21 02:07:00,30.4,17.8,30.09,ESE,113,4.0,12.0,59,0.00,,,0.00,meteohub,2013-02-21 08:07:00,
2013-02-21 02:12:00,30.4,17.8,30.09,ESE,113,3.0,7.0,59,0.00,,,0.00,meteohub,2013-02-21 08:12:00,
2013-02-21 02:17:00,30.4,17.8,30.09,ESE,113,4.0,7.0,59,0.00,,,0.00,meteohub,2013-02-21 08:17:00,
2013-02-21 02:22:00,30.4,18.1,30.09,NE,45,6.0,6.0,60,0.00,,,0.00,meteohub,2013-02-21 08:22:00,
2013-02-21 02:27:00,30.4,18.1,30.07,SSE,158,0.0,9.0,60,0.00,,,0.00,meteohub,2013-02-21 08:27:00,
2013-02-21 02:32:00,30.0,17.8,30.07,ESE,113,4.0,9.0,60,0.00,,,0.00,meteohub,2013-02-21 08:32:00,
2013-02-21 02:37:00,30.0,17.8,30.07,SE,135,10.0,10.0,60,0.00,,,0.00,meteohub,2013-02-21 08:37:00,
2013-02-21 02:42:00,30.0,17.8,30.07,ESE,113,3.0,10.0,60,0.00,,,0.00,meteohub,2013-02-21 08:42:00,
2013-02-21 02:47:00,30.0,18.1,30.05,ENE,68,6.0,12.0,61,0.00,,,0.00,meteohub,2013-02-21 08:47:00,
2013-02-21 02:52:00,29.7,17.8,30.05,ESE,113,8.0,12.0,61,0.00,,,0.00,meteohub,2013-02-21 08:52:00,
2013-02-21 02:57:00,29.7,18.3,30.05,East,90,6.0,12.0,62,0.00,,,0.00,meteohub,2013-02-21 08:57:00,
2013-02-21 03:02:00,29.7,18.3,30.05,SE,135,4.0,9.0,62,0.00,,,0.00,meteohub,2013-02-21 09:02:00,
2013-02-21 03:07:00,29.7,18.3,30.05,ENE,68,7.0,8.0,62,0.00,,,0.00,meteohub,2013-02-21 09:07:00,
2013-02-21 03:12:00,29.7,18.7,30.05,East,90,7.0,9.0,63,0.00,,,0.00,meteohub,2013-02-21 09:12:00,
2013-02-21 03:17:00,29.3,18.3,30.05,SE,135,3.0,9.0,63,0.00,,,0.00,meteohub,2013-02-21 09:17:00,
2013-02-21 03:22:00,29.3,18.3,30.05,SSE,158,7.0,9.0,63,0.00,,,0.00,meteohub,2013-02-21 09:22:00,
2013-02-21 03:27:00,29.3,18.3,30.03,SE,135,3.0,7.0,63,0.00,,,0.00,meteohub,2013-02-21 09:27:00,
2013-02-21 03:32:00,29.3,18.3,30.03,SSE,158,2.0,9.0,63,0.00,,,0.00,meteohub,2013-02-21 09:32:00,
2013-02-21 03:37:00,29.7,18.3,30.03,ESE,113,2.0,9.0,62,0.00,,,0.00,meteohub,2013-02-21 09:37:00,
2013-02-21 03:42:00,29.3,18.0,30.03,SE,135,7.0,9.0,62,0.00,,,0.00,meteohub,2013-02-21 09:42:00,
2013-02-21 03:47:00,29.3,18.0,30.03,ESE,113,6.0,9.0,62,0.00,,,0.00,meteohub,2013-02-21 09:47:00,
2013-02-21 03:53:00,29.7,18.7,30.03,ESE,113,12.0,12.0,63,0.00,,,0.00,meteohub,2013-02-21 09:53:00,
2013-02-21 03:58:00,29.3,18.7,30.03,ESE,113,6.0,12.0,64,0.00,,,0.00,meteohub,2013-02-21 09:58:00,
2013-02-21 04:03:00,29.1,19.2,30.03,SE,135,7.0,12.0,66,0.00,,,0.00,meteohub,2013-02-21 10:03:00,
2013-02-21 04:08:00,28.9,19.8,29.99,SE,135,10.0,12.0,68,0.00,,,0.00,meteohub,2013-02-21 10:08:00,
2013-02-21 04:13:00,28.9,20.1,29.99,SE,135,7.0,9.0,69,0.00,,,0.00,meteohub,2013-02-21 10:13:00,
2013-02-21 04:18:00,28.9,20.5,29.99,SE,135,7.0,10.0,70,0.00,,,0.00,meteohub,2013-02-21 10:18:00,
2013-02-21 04:23:00,28.6,20.1,30.00,SE,135,4.0,10.0,70,0.00,,,0.00,meteohub,2013-02-21 10:23:00,
2013-02-21 04:28:00,28.4,19.9,29.99,SE,135,4.0,10.0,70,0.00,,,0.00,meteohub,2013-02-21 10:28:00,
2013-02-21 04:33:00,28.6,20.3,29.99,SE,135,9.0,10.0,71,0.00,,,0.00,meteohub,2013-02-21 10:33:00,
2013-02-21 04:38:00,28.2,20.1,29.99,SE,135,7.0,10.0,71,0.00,,,0.00,meteohub,2013-02-21 10:38:00,
2013-02-21 04:43:00,28.2,20.3,29.99,SE,135,7.0,10.0,72,0.00,,,0.00,meteohub,2013-02-21 10:43:00,
2013-02-21 04:48:00,28.2,20.3,29.98,SE,135,6.0,10.0,72,0.00,,,0.00,meteohub,2013-02-21 10:48:00,
2013-02-21 04:53:00,28.2,20.3,29.98,SE,135,4.0,10.0,72,0.00,,,0.00,meteohub,2013-02-21 10:53:00,
2013-02-21 04:58:00,28.2,20.3,29.98,SE,135,5.0,10.0,72,0.00,,,0.00,meteohub,2013-02-21 10:58:00,
2013-02-21 05:03:00,28.2,20.3,29.98,SE,135,4.0,10.0,72,0.00,,,0.00,meteohub,2013-02-21 11:03:00,
2013-02-21 05:08:00,28.2,21.0,29.98,SE,135,4.0,7.0,74,0.00,,,0.00,meteohub,2013-02-21 11:08:00,
2013-02-21 05:13:00,28.4,21.6,29.98,SE,135,6.0,7.0,75,0.00,,,0.00,meteohub,2013-02-21 11:13:00,
2013-02-21 05:18:00,28.4,21.7,29.98,SE,135,4.0,9.0,76,0.00,,,0.00,meteohub,2013-02-21 11:18:00,
2013-02-21 05:23:00,28.2,21.9,29.98,SE,135,4.0,9.0,77,0.00,,,0.00,meteohub,2013-02-21 11:23:00,
2013-02-21 05:28:00,28.2,21.6,29.96,SE,135,5.0,9.0,76,0.00,,,0.00,meteohub,2013-02-21 11:28:00,
2013-02-21 05:33:00,28.2,21.9,29.96,SE,135,5.0,9.0,77,0.00,,,0.00,meteohub,2013-02-21 11:33:00,
2013-02-21 05:38:00,28.2,21.9,29.96,SE,135,6.0,9.0,77,0.00,,,0.00,meteohub,2013-02-21 11:38:00,
2013-02-21 05:43:00,28.2,21.9,29.96,SE,135,7.0,7.0,77,0.00,,,0.00,meteohub,2013-02-21 11:43:00,
2013-02-21 05:48:00,28.2,21.9,29.94,SE,135,10.0,13.0,77,0.00,,,0.00,meteohub,2013-02-21 11:48:00,
2013-02-21 05:53:00,28.2,21.9,29.94,SE,135,6.0,13.0,77,0.00,,,0.00,meteohub,2013-02-21 11:53:00,
2013-02-21 05:58:00,28.2,21.9,29.94,SE,135,4.0,10.0,77,0.00,,,0.00,meteohub,2013-02-21 11:58:00,
2013-02-21 06:03:00,28.2,21.6,29.94,SE,135,5.0,10.0,76,0.00,,,0.00,meteohub,2013-02-21 12:03:00,
2013-02-21 06:08:00,28.2,21.9,29.95,SE,135,9.0,9.0,77,0.00,,,0.00,meteohub,2013-02-21 12:08:00,
2013-02-21 06:13:00,28.2,21.9,29.95,SE,135,3.0,9.0,77,0.00,,,0.00,meteohub,2013-02-21 12:13:00,
2013-02-21 06:18:00,28.2,21.9,29.95,SE,135,4.0,9.0,77,0.00,,,0.00,meteohub,2013-02-21 12:18:00,
2013-02-21 06:23:00,28.4,22.1,29.95,SE,135,9.0,9.0,77,0.00,,,0.00,meteohub,2013-02-21 12:23:00,
2013-02-21 06:28:00,28.6,22.6,29.96,SE,135,7.0,9.0,78,0.00,,,0.00,meteohub,2013-02-21 12:28:00,
2013-02-21 06:33:00,28.9,23.2,29.96,SE,135,4.0,9.0,79,0.00,,,0.00,meteohub,2013-02-21 12:33:00,
2013-02-21 06:38:00,28.9,23.2,29.96,SE,135,4.0,9.0,79,0.00,,,0.00,meteohub,2013-02-21 12:38:00,
2013-02-21 06:43:00,28.9,23.2,29.96,SE,135,9.0,9.0,79,0.00,,,0.00,meteohub,2013-02-21 12:43:00,
2013-02-21 06:48:00,28.9,23.5,29.94,SE,135,5.0,9.0,80,0.00,,,0.00,meteohub,2013-02-21 12:48:00,
2013-02-21 06:53:00,28.6,23.2,29.95,SE,135,7.0,9.0,80,0.00,,,0.00,meteohub,2013-02-21 12:53:00,
2013-02-21 06:58:00,28.6,23.2,29.95,SE,135,5.0,9.0,80,0.00,,,0.00,meteohub,2013-02-21 12:58:00,
2013-02-21 07:04:00,28.6,23.5,29.95,SE,135,10.0,10.0,81,0.00,,,0.00,meteohub,2013-02-21 13:04:00,
2013-02-21 07:09:00,28.6,23.5,29.91,SE,135,9.0,9.0,81,0.00,,,0.00,meteohub,2013-02-21 13:09:00,
2013-02-21 07:14:00,28.4,23.4,29.91,SE,135,5.0,10.0,81,0.00,,,0.00,meteohub,2013-02-21 13:14:00,
2013-02-21 07:19:00,28.6,24.1,29.91,SE,135,8.0,10.0,83,0.00,,,0.00,meteohub,2013-02-21 13:19:00,
2013-02-21 07:24:00,28.9,24.8,29.91,SE,135,5.0,9.0,84,0.00,,,0.00,meteohub,2013-02-21 13:24:00,
2013-02-21 07:29:00,28.9,24.8,29.95,SE,135,4.0,8.0,84,0.00,,,0.00,meteohub,2013-02-21 13:29:00,
2013-02-21 07:34:00,28.9,24.8,29.95,SE,135,0.0,8.0,84,0.00,,,0.00,meteohub,2013-02-21 13:34:00,
2013-02-21 07:39:00,28.9,24.4,29.95,SE,135,3.0,8.0,83,0.00,,,0.00,meteohub,2013-02-21 13:39:00,
2013-02-21 07:44:00,29.3,25.2,29.95,SE,135,6.0,6.0,84,0.00,,,0.00,meteohub,2013-02-21 13:44:00,
2013-02-21 07:49:00,28.9,25.0,29.96,SE,135,11.0,12.0,85,0.00,,,0.00,meteohub,2013-02-21 13:49:00,
2013-02-21 07:54:00,29.1,25.2,29.96,SE,135,6.0,12.0,85,0.00,,,0.00,meteohub,2013-02-21 13:54:00,
2013-02-21 07:59:00,29.1,25.2,29.96,SE,135,10.0,12.0,85,0.00,,,0.00,meteohub,2013-02-21 13:59:00,
2013-02-21 08:04:00,28.9,24.8,29.96,SE,135,8.0,11.0,84,0.00,,,0.00,meteohub,2013-02-21 14:04:00,
2013-02-21 08:09:00,28.9,24.8,29.94,SE,135,10.0,11.0,84,0.00,,,0.00,meteohub,2013-02-21 14:09:00,
2013-02-21 08:14:00,28.9,24.8,29.94,SE,135,7.0,10.0,84,0.00,,,0.00,meteohub,2013-02-21 14:14:00,
2013-02-21 08:19:00,28.9,24.8,29.94,SE,135,5.0,11.0,84,0.00,,,0.00,meteohub,2013-02-21 14:19:00,
2013-02-21 08:24:00,28.9,24.8,29.94,SE,135,6.0,11.0,84,0.00,,,0.00,meteohub,2013-02-21 14:24:00,
2013-02-21 08:29:00,28.9,24.8,29.91,SE,135,10.0,11.0,84,0.00,,,0.00,meteohub,2013-02-21 14:29:00,
2013-02-21 08:34:00,28.9,24.4,29.91,SE,135,8.0,13.0,83,0.00,,,0.00,meteohub,2013-02-21 14:34:00,
2013-02-21 08:39:00,28.8,24.3,29.91,SE,135,7.0,13.0,83,0.00,,,0.00,meteohub,2013-02-21 14:39:00,
2013-02-21 08:44:00,28.9,24.8,29.91,SE,135,3.0,12.0,84,0.00,,,0.00,meteohub,2013-02-21 14:44:00,
2013-02-21 08:49:00,28.6,24.4,29.89,SE,135,8.0,12.0,84,0.00,,,0.00,meteohub,2013-02-21 14:49:00,
2013-02-21 08:54:00,28.6,24.4,29.89,SE,135,2.0,8.0,84,0.00,,,0.00,meteohub,2013-02-21 14:54:00,
2013-02-21 08:59:00,28.6,24.4,29.89,SE,135,5.0,8.0,84,0.00,,,0.00,meteohub,2013-02-21 14:59:00,
2013-02-21 09:04:00,28.6,24.4,29.89,SE,135,11.0,11.0,84,0.00,,,0.00,meteohub,2013-02-21 15:04:00,
2013-02-21 09:09:00,28.4,23.9,29.86,SE,135,12.0,12.0,83,0.00,,,0.00,meteohub,2013-02-21 15:09:00,
2013-02-21 09:14:00,28.4,23.9,29.86,SE,135,11.0,11.0,83,0.00,,,0.00,meteohub,2013-02-21 15:14:00,
2013-02-21 09:19:00,28.4,23.9,29.86,SE,135,9.0,12.0,83,0.00,,,0.00,meteohub,2013-02-21 15:19:00,
2013-02-21 09:24:00,28.4,23.9,29.86,SE,135,10.0,12.0,83,0.00,,,0.00,meteohub,2013-02-21 15:24:00,
2013-02-21 09:29:00,28.6,24.1,29.86,SE,135,3.0,12.0,83,0.00,,,0.00,meteohub,2013-02-21 15:29:00,
2013-02-21 09:34:00,28.6,24.1,29.86,SE,135,0.0,10.0,83,0.00,,,0.00,meteohub,2013-02-21 15:34:00,
2013-02-21 09:39:00,28.9,24.4,29.86,SE,135,0.0,10.0,83,0.00,,,0.00,meteohub,2013-02-21 15:39:00,
2013-02-21 09:44:00,28.6,24.1,29.86,SE,135,5.0,7.0,83,0.00,,,0.00,meteohub,2013-02-21 15:44:00,
2013-02-21 09:49:00,28.9,24.1,29.91,SE,135,3.0,7.0,82,0.00,,,0.00,meteohub,2013-02-21 15:49:00,
2013-02-21 09:54:00,28.8,24.3,29.91,SE,135,5.0,5.0,83,0.00,,,0.00,meteohub,2013-02-21 15:54:00,
2013-02-21 09:59:00,28.9,24.4,29.91,SE,135,3.0,5.0,83,0.00,,,0.00,meteohub,2013-02-21 15:59:00,
2013-02-21 10:04:00,28.6,24.1,29.91,SE,135,0.0,5.0,83,0.00,,,0.00,meteohub,2013-02-21 16:04:00,
2013-02-21 10:09:00,28.6,24.1,29.92,SE,135,1.0,5.0,83,0.00,,,0.00,meteohub,2013-02-21 16:09:00,
2013-02-21 10:14:00,28.9,24.4,29.92,SE,135,5.0,5.0,83,0.00,,,0.00,meteohub,2013-02-21 16:14:00,
2013-02-21 10:19:00,28.9,24.4,29.92,SE,135,0.0,2.0,83,0.00,,,0.00,meteohub,2013-02-21 16:19:00,
2013-02-21 10:24:00,28.6,24.1,29.92,SE,135,4.0,5.0,83,0.00,,,0.00,meteohub,2013-02-21 16:24:00,
2013-02-21 10:29:00,28.6,24.1,29.91,SE,135,5.0,5.0,83,0.00,,,0.00,meteohub,2013-02-21 16:29:00,
2013-02-21 10:34:00,28.6,24.4,29.91,SE,135,3.0,4.0,84,0.00,,,0.00,meteohub,2013-02-21 16:34:00,
2013-02-21 10:39:00,28.6,24.4,29.91,SE,135,0.0,5.0,84,0.00,,,0.00,meteohub,2013-02-21 16:39:00,
2013-02-21 10:44:00,28.6,24.4,29.91,SE,135,2.0,5.0,84,0.00,,,0.00,meteohub,2013-02-21 16:44:00,
2013-02-21 10:49:00,28.6,24.4,29.93,SE,135,2.0,5.0,84,0.00,,,0.00,meteohub,2013-02-21 16:49:00,
2013-02-21 10:54:00,28.4,24.3,29.93,SE,135,2.0,3.0,84,0.00,,,0.00,meteohub,2013-02-21 16:54:00,
2013-02-21 10:59:00,28.4,24.4,29.93,SE,135,1.0,3.0,85,0.00,,,0.00,meteohub,2013-02-21 16:59:00,
2013-02-21 11:04:00,28.6,24.6,29.93,SE,135,2.0,3.0,85,0.00,,,0.00,meteohub,2013-02-21 17:04:00,
2013-02-21 11:09:00,28.6,24.6,29.93,SE,135,0.0,3.0,85,0.00,,,0.00,meteohub,2013-02-21 17:09:00,
2013-02-21 11:14:00,28.6,24.6,29.93,SE,135,0.0,2.0,85,0.00,,,0.00,meteohub,2013-02-21 17:14:00,
2013-02-21 11:19:00,28.9,25.0,29.93,SE,135,2.0,2.0,85,0.00,,,0.00,meteohub,2013-02-21 17:19:00,
2013-02-21 11:24:00,28.9,25.0,29.93,SE,135,3.0,3.0,85,0.00,,,0.00,meteohub,2013-02-21 17:24:00,
2013-02-21 11:29:00,28.9,25.0,29.93,SE,135,3.0,3.0,85,0.00,,,0.00,meteohub,2013-02-21 17:29:00,
2013-02-21 11:34:00,28.9,25.3,29.93,SE,135,3.0,4.0,86,0.00,,,0.00,meteohub,2013-02-21 17:34:00,
2013-02-21 11:39:00,28.9,25.3,29.93,SE,135,7.0,7.0,86,0.00,,,0.00,meteohub,2013-02-21 17:39:00,
2013-02-21 11:44:00,29.3,25.9,29.93,SE,135,8.0,8.0,87,0.00,,,0.00,meteohub,2013-02-21 17:44:00,
2013-02-21 11:49:00,28.9,25.5,29.87,SE,135,3.0,7.0,87,0.00,,,0.00,meteohub,2013-02-21 17:49:00,
2013-02-21 11:54:00,29.1,25.7,29.87,SE,135,6.0,8.0,87,0.00,,,0.00,meteohub,2013-02-21 17:54:00,
2013-02-21 11:59:00,29.3,26.2,29.87,SE,135,6.0,11.0,88,0.00,,,0.00,meteohub,2013-02-21 17:59:00,
2013-02-21 12:04:00,29.3,26.2,29.87,SE,135,7.0,11.0,88,0.00,,,0.00,meteohub,2013-02-21 18:04:00,
2013-02-21 12:09:00,29.3,26.2,29.86,SE,135,4.0,11.0,88,0.00,,,0.00,meteohub,2013-02-21 18:09:00,
2013-02-21 12:15:00,29.7,26.6,29.86,SE,135,8.0,9.0,88,0.00,,,0.00,meteohub,2013-02-21 18:15:00,
2013-02-21 12:20:00,29.5,26.4,29.86,SE,135,4.0,9.0,88,0.00,,,0.00,meteohub,2013-02-21 18:20:00,
2013-02-21 12:25:00,30.0,27.0,29.87,SE,135,5.0,10.0,88,0.00,,,0.00,meteohub,2013-02-21 18:25:00,
2013-02-21 12:30:00,29.7,26.6,29.87,SE,135,5.0,10.0,88,0.00,,,0.00,meteohub,2013-02-21 18:30:00,
2013-02-21 12:35:00,30.0,27.0,29.87,SE,135,11.0,11.0,88,0.00,,,0.00,meteohub,2013-02-21 18:35:00,
2013-02-21 12:40:00,29.8,26.8,29.87,SE,135,2.0,9.0,88,0.00,,,0.00,meteohub,2013-02-21 18:40:00,
2013-02-21 12:45:00,30.0,27.0,29.87,SE,135,9.0,11.0,88,0.00,,,0.00,meteohub,2013-02-21 18:45:00,
2013-02-21 12:50:00,30.0,27.0,29.83,SE,135,8.0,9.0,88,0.00,,,0.00,meteohub,2013-02-21 18:50:00,
2013-02-21 12:55:00,30.4,27.3,29.83,SE,135,8.0,9.0,88,0.00,,,0.00,meteohub,2013-02-21 18:55:00,
2013-02-21 13:00:00,30.4,27.3,29.83,SE,135,8.0,8.0,88,0.00,,,0.00,meteohub,2013-02-21 19:00:00,
2013-02-21 13:05:00,30.4,27.3,29.83,SE,135,2.0,8.0,88,0.00,,,0.00,meteohub,2013-02-21 19:05:00,
2013-02-21 13:10:00,30.4,27.3,29.83,SE,135,2.0,8.0,88,0.00,,,0.00,meteohub,2013-02-21 19:10:00,
2013-02-21 13:15:00,30.4,27.3,29.83,SE,135,6.0,8.0,88,0.00,,,0.00,meteohub,2013-02-21 19:15:00,
2013-02-21 13:20:00,30.2,27.1,29.83,SE,135,5.0,6.0,88,0.00,,,0.00,meteohub,2013-02-21 19:20:00,
2013-02-21 13:25:00,30.4,27.3,29.83,SE,135,4.0,6.0,88,0.00,,,0.00,meteohub,2013-02-21 19:25:00,
2013-02-21 13:30:00,30.4,27.3,29.80,SE,135,6.0,6.0,88,0.00,,,0.00,meteohub,2013-02-21 19:30:00,
2013-02-21 13:35:00,30.4,27.0,29.80,SE,135,10.0,10.0,87,0.00,,,0.00,meteohub,2013-02-21 19:35:00,
2013-02-21 13:40:00,30.4,27.0,29.80,SE,135,6.0,10.0,87,0.00,,,0.00,meteohub,2013-02-21 19:40:00,
2013-02-21 13:45:00,30.4,27.0,29.77,SE,135,6.0,10.0,87,0.00,,,0.00,meteohub,2013-02-21 19:45:00,
2013-02-21 13:50:00,30.4,27.0,29.77,SE,135,4.0,9.0,87,0.00,,,0.00,meteohub,2013-02-21 19:50:00,
2013-02-21 13:55:00,30.4,27.0,29.77,SE,135,2.0,8.0,87,0.00,,,0.00,meteohub,2013-02-21 19:55:00,
2013-02-21 14:00:00,30.4,27.0,29.77,SE,135,4.0,8.0,87,0.00,,,0.00,meteohub,2013-02-21 20:00:00,
2013-02-21 14:05:00,30.4,27.0,29.76,SE,135,7.0,8.0,87,0.00,,,0.00,meteohub,2013-02-21 20:05:00,
2013-02-21 14:10:00,30.4,27.0,29.76,SE,135,10.0,10.0,87,0.00,,,0.00,meteohub,2013-02-21 20:10:00,
2013-02-21 14:15:00,30.4,27.0,29.76,SE,135,3.0,10.0,87,0.00,,,0.00,meteohub,2013-02-21 20:15:00,
2013-02-21 14:20:00,30.4,27.0,29.76,SE,135,6.0,10.0,87,0.00,,,0.00,meteohub,2013-02-21 20:20:00,
2013-02-21 14:25:00,30.4,27.3,29.75,SE,135,4.0,10.0,88,0.00,,,0.00,meteohub,2013-02-21 20:25:00,
2013-02-21 14:30:00,30.6,27.5,29.75,SE,135,7.0,7.0,88,0.00,,,0.00,meteohub,2013-02-21 20:30:00,
2013-02-21 14:35:00,30.6,27.5,29.75,SE,135,6.0,7.0,88,0.00,,,0.00,meteohub,2013-02-21 20:35:00,
2013-02-21 14:40:00,30.7,27.7,29.75,SE,135,2.0,7.0,88,0.00,,,0.00,meteohub,2013-02-21 20:40:00,
2013-02-21 14:45:00,31.1,28.0,29.73,SE,135,3.0,7.0,88,0.00,,,0.00,meteohub,2013-02-21 20:45:00,
2013-02-21 14:50:00,30.9,27.9,29.73,SE,135,4.0,7.0,88,0.00,,,0.00,meteohub,2013-02-21 20:50:00,
2013-02-21 14:55:00,31.1,28.0,29.73,SE,135,4.0,7.0,88,0.00,,,0.00,meteohub,2013-02-21 20:55:00,
2013-02-21 15:00:00,31.1,28.0,29.73,SE,135,6.0,7.0,88,0.00,,,0.00,meteohub,2013-02-21 21:00:00,
2013-02-21 15:05:00,31.1,28.0,29.73,SE,135,4.0,7.0,88,0.00,,,0.00,meteohub,2013-02-21 21:05:00,
2013-02-21 15:10:00,31.1,28.0,29.73,SE,135,3.0,9.0,88,0.00,,,0.00,meteohub,2013-02-21 21:10:00,
2013-02-21 15:15:00,31.1,28.0,29.73,SE,135,8.0,9.0,88,0.00,,,0.00,meteohub,2013-02-21 21:15:00,
2013-02-21 15:20:00,31.3,28.2,29.72,SE,135,5.0,8.0,88,0.00,,,0.00,meteohub,2013-02-21 21:20:00,
2013-02-21 15:25:00,31.3,28.2,29.73,SE,135,0.0,8.0,88,0.00,,,0.00,meteohub,2013-02-21 21:25:00,
2013-02-21 15:30:00,31.3,28.2,29.73,SE,135,7.0,8.0,88,0.00,,,0.00,meteohub,2013-02-21 21:30:00,
2013-02-21 15:35:00,31.5,28.4,29.73,SE,135,3.0,8.0,88,0.00,,,0.00,meteohub,2013-02-21 21:35:00,
2013-02-21 15:40:00,31.5,28.4,29.73,SE,135,2.0,8.0,88,0.00,,,0.00,meteohub,2013-02-21 21:40:00,
2013-02-21 15:45:00,31.5,28.4,29.73,SE,135,3.0,9.0,88,0.00,,,0.00,meteohub,2013-02-21 21:45:00,
2013-02-21 15:50:00,31.5,28.4,29.73,SE,135,3.0,9.0,88,0.00,,,0.00,meteohub,2013-02-21 21:50:00,
2013-02-21 15:55:00,31.8,28.8,29.73,SE,135,3.0,10.0,88,0.00,,,0.00,meteohub,2013-02-21 21:55:00,
2013-02-21 16:00:00,31.5,28.4,29.73,SE,135,1.0,10.0,88,0.00,,,0.00,meteohub,2013-02-21 22:00:00,
2013-02-21 16:06:00,31.5,28.4,29.72,SE,135,11.0,11.0,88,0.00,,,0.00,meteohub,2013-02-21 22:06:00,
2013-02-21 16:11:00,31.5,28.4,29.72,SE,135,9.0,11.0,88,0.00,,,0.00,meteohub,2013-02-21 22:11:00,
2013-02-21 16:16:00,31.5,28.4,29.72,SE,135,5.0,11.0,88,0.00,,,0.00,meteohub,2013-02-21 22:16:00,
2013-02-21 16:21:00,31.5,28.4,29.72,SE,135,9.0,11.0,88,0.00,,,0.00,meteohub,2013-02-21 22:21:00,
2013-02-21 16:26:00,31.5,28.6,29.72,SE,135,7.0,9.0,89,0.00,,,0.00,meteohub,2013-02-21 22:26:00,
2013-02-21 16:31:00,31.5,28.6,29.72,SE,135,5.0,9.0,89,0.00,,,0.00,meteohub,2013-02-21 22:31:00,
2013-02-21 16:36:00,31.3,28.4,29.72,SE,135,5.0,9.0,89,0.00,,,0.00,meteohub,2013-02-21 22:36:00,
2013-02-21 16:41:00,31.5,28.6,29.72,SE,135,3.0,7.0,89,0.00,,,0.00,meteohub,2013-02-21 22:41:00,
2013-02-21 16:46:00,31.5,28.6,29.73,SE,135,5.0,7.0,89,0.00,,,0.00,meteohub,2013-02-21 22:46:00,
2013-02-21 16:51:00,31.5,28.6,29.73,SE,135,7.0,7.0,89,0.00,,,0.00,meteohub,2013-02-21 22:51:00,
2013-02-21 16:56:00,31.5,28.6,29.73,SE,135,1.0,7.0,89,0.00,,,0.00,meteohub,2013-02-21 22:56:00,
2013-02-21 17:01:00,31.8,28.9,29.73,SE,135,4.0,7.0,89,0.00,,,0.00,meteohub,2013-02-21 23:01:00,
2013-02-21 17:06:00,31.5,28.6,29.72,SE,135,2.0,7.0,89,0.00,,,0.00,meteohub,2013-02-21 23:06:00,
2013-02-21 17:11:00,31.8,28.9,29.72,SE,135,6.0,6.0,89,0.00,,,0.00,meteohub,2013-02-21 23:11:00,
2013-02-21 17:16:00,31.8,28.9,29.72,SE,135,4.0,6.0,89,0.00,,,0.00,meteohub,2013-02-21 23:16:00,
2013-02-21 17:21:00,31.8,28.9,29.72,SE,135,2.0,6.0,89,0.00,,,0.00,meteohub,2013-02-21 23:21:00,
2013-02-21 17:26:00,31.8,28.9,29.76,SE,135,3.0,6.0,89,0.00,,,0.00,meteohub,2013-02-21 23:26:00,
2013-02-21 17:31:00,31.8,28.9,29.76,SE,135,4.0,4.0,89,0.00,,,0.00,meteohub,2013-02-21 23:31:00,
2013-02-21 17:36:00,31.6,28.8,29.76,SE,135,1.0,5.0,89,0.00,,,0.00,meteohub,2013-02-21 23:36:00,
2013-02-21 17:41:00,31.8,28.9,29.76,SE,135,0.0,5.0,89,0.00,,,0.00,meteohub,2013-02-21 23:41:00,
2013-02-21 17:46:00,31.8,28.9,29.77,SE,135,4.0,4.0,89,0.00,,,0.00,meteohub,2013-02-21 23:46:00,
2013-02-21 17:51:00,31.8,28.9,29.77,SE,135,4.0,6.0,89,0.00,,,0.00,meteohub,2013-02-21 23:51:00,
2013-02-21 17:56:00,31.8,28.9,29.77,SE,135,1.0,6.0,89,0.00,,,0.00,meteohub,2013-02-21 23:56:00,
2013-02-21 18:01:00,31.5,28.6,29.77,SE,135,5.0,5.0,89,0.00,,,0.00,meteohub,2013-02-22 00:01:00,
2013-02-21 18:06:00,31.5,28.6,29.82,SE,135,5.0,5.0,89,0.00,,,0.00,meteohub,2013-02-22 00:06:00,
2013-02-21 18:11:00,31.5,28.6,29.82,SE,135,2.0,5.0,89,0.00,,,0.00,meteohub,2013-02-22 00:11:00,
2013-02-21 18:16:00,31.5,28.6,29.82,SE,135,2.0,6.0,89,0.00,,,0.00,meteohub,2013-02-22 00:16:00,
2013-02-21 18:21:00,31.5,28.6,29.82,SE,135,1.0,6.0,89,0.00,,,0.00,meteohub,2013-02-22 00:21:00,
2013-02-21 18:26:00,31.5,28.6,29.82,SE,135,4.0,7.0,89,0.00,,,0.00,meteohub,2013-02-22 00:26:00,
2013-02-21 18:31:00,31.5,28.6,29.82,SE,135,7.0,7.0,89,0.00,,,0.00,meteohub,2013-02-22 00:31:00,
2013-02-21 18:36:00,31.5,28.6,29.82,SE,135,2.0,7.0,89,0.00,,,0.00,meteohub,2013-02-22 00:36:00,
2013-02-21 18:41:00,31.5,28.6,29.82,SE,135,2.0,7.0,89,0.00,,,0.00,meteohub,2013-02-22 00:41:00,
2013-02-21 18:46:00,31.5,28.6,29.83,SE,135,6.0,7.0,89,0.00,,,0.00,meteohub,2013-02-22 00:46:00,
2013-02-21 18:51:00,31.3,28.4,29.83,SE,135,2.0,6.0,89,0.00,,,0.00,meteohub,2013-02-22 00:51:00,
2013-02-21 18:56:00,31.3,28.4,29.83,SE,135,3.0,6.0,89,0.00,,,0.00,meteohub,2013-02-22 00:56:00,
2013-02-21 19:01:00,31.3,28.4,29.83,SE,135,4.0,6.0,89,0.00,,,0.00,meteohub,2013-02-22 01:01:00,
2013-02-21 19:06:00,31.3,28.4,29.83,SE,135,2.0,4.0,89,0.00,,,0.00,meteohub,2013-02-22 01:06:00,
2013-02-21 19:11:00,31.3,28.4,29.83,SE,135,2.0,4.0,89,0.00,,,0.00,meteohub,2013-02-22 01:11:00,
2013-02-21 19:16:00,31.3,28.4,29.83,SE,135,2.0,4.0,89,0.00,,,0.00,meteohub,2013-02-22 01:16:00,
2013-02-21 19:21:00,31.5,28.6,29.83,SE,135,1.0,3.0,89,0.00,,,0.00,meteohub,2013-02-22 01:21:00,
2013-02-21 19:26:00,31.5,28.6,29.83,SE,135,2.0,6.0,89,0.00,,,0.00,meteohub,2013-02-22 01:26:00,
2013-02-21 19:31:00,31.3,28.4,29.83,SE,135,4.0,6.0,89,0.00,,,0.00,meteohub,2013-02-22 01:31:00,
2013-02-21 19:36:00,31.5,28.6,29.83,SE,135,1.0,6.0,89,0.00,,,0.00,meteohub,2013-02-22 01:36:00,
2013-02-21 19:41:00,31.5,28.6,29.83,SE,135,3.0,4.0,89,0.00,,,0.00,meteohub,2013-02-22 01:41:00,
2013-02-21 19:46:00,31.5,28.6,29.84,SE,135,2.0,4.0,89,0.00,,,0.00,meteohub,2013-02-22 01:46:00,
2013-02-21 19:51:00,31.5,28.6,29.84,SE,135,1.0,3.0,89,0.00,,,0.00,meteohub,2013-02-22 01:51:00,
2013-02-21 19:56:00,31.5,28.6,29.84,SE,135,3.0,3.0,89,0.00,,,0.00,meteohub,2013-02-22 01:56:00,
2013-02-21 20:01:00,31.5,28.6,29.84,SE,135,2.0,3.0,89,0.00,,,0.00,meteohub,2013-02-22 02:01:00,
2013-02-21 20:06:00,31.5,28.6,29.84,SE,135,5.0,5.0,89,0.00,,,0.00,meteohub,2013-02-22 02:06:00,
2013-02-21 20:11:00,31.8,28.9,29.84,SE,135,2.0,5.0,89,0.00,,,0.00,meteohub,2013-02-22 02:11:00,
2013-02-21 20:16:00,31.5,28.6,29.84,SE,135,2.0,5.0,89,0.00,,,0.00,meteohub,2013-02-22 02:16:00,
2013-02-21 20:21:00,31.8,28.9,29.84,SE,135,2.0,5.0,89,0.00,,,0.00,meteohub,2013-02-22 02:21:00,
2013-02-21 20:26:00,31.8,28.9,29.83,SE,135,2.0,6.0,89,0.00,,,0.00,meteohub,2013-02-22 02:26:00,
2013-02-21 20:31:00,31.6,28.8,29.83,SE,135,2.0,6.0,89,0.00,,,0.00,meteohub,2013-02-22 02:31:00,
2013-02-21 20:36:00,31.6,28.8,29.83,SE,135,1.0,6.0,89,0.00,,,0.00,meteohub,2013-02-22 02:36:00,
2013-02-21 20:41:00,31.6,28.8,29.83,SE,135,2.0,2.0,89,0.00,,,0.00,meteohub,2013-02-22 02:41:00,
2013-02-21 20:46:00,31.6,28.8,29.83,SE,135,4.0,4.0,89,0.00,,,0.00,meteohub,2013-02-22 02:46:00,
2013-02-21 20:51:00,31.6,28.8,29.83,SE,135,1.0,4.0,89,0.00,,,0.00,meteohub,2013-02-22 02:51:00,
2013-02-21 20:57:00,31.8,28.9,29.83,SE,135,0.0,4.0,89,0.00,,,0.00,meteohub,2013-02-22 02:57:00,
2013-02-21 21:02:00,31.8,28.9,29.83,SE,135,2.0,4.0,89,0.00,,,0.00,meteohub,2013-02-22 03:02:00,
2013-02-21 21:07:00,31.8,28.9,29.84,SE,135,2.0,2.0,89,0.00,,,0.00,meteohub,2013-02-22 03:07:00,
2013-02-21 21:12:00,31.8,28.9,29.84,SE,135,0.0,2.0,89,0.00,,,0.00,meteohub,2013-02-22 03:12:00,
2013-02-21 21:17:00,31.8,28.9,29.84,SE,135,0.0,2.0,89,0.00,,,0.00,meteohub,2013-02-22 03:17:00,
2013-02-21 21:22:00,31.8,28.9,29.84,SE,135,3.0,3.0,89,0.00,,,0.00,meteohub,2013-02-22 03:22:00,
2013-02-21 21:27:00,31.8,29.3,29.84,SE,135,0.0,3.0,90,0.00,,,0.00,meteohub,2013-02-22 03:27:00,
2013-02-21 21:32:00,31.8,28.9,29.84,SE,135,2.0,4.0,89,0.00,,,0.00,meteohub,2013-02-22 03:32:00,
2013-02-21 21:37:00,31.8,29.3,29.84,SE,135,3.0,4.0,90,0.00,,,0.00,meteohub,2013-02-22 03:37:00,
2013-02-21 21:42:00,31.8,28.9,29.84,SE,135,2.0,6.0,89,0.00,,,0.00,meteohub,2013-02-22 03:42:00,
2013-02-21 21:47:00,31.8,28.9,29.84,SE,135,0.0,6.0,89,0.00,,,0.00,meteohub,2013-02-22 03:47:00,
2013-02-21 21:52:00,31.8,28.9,29.84,SE,135,5.0,6.0,89,0.00,,,0.00,meteohub,2013-02-22 03:52:00,
2013-02-21 21:57:00,31.8,29.3,29.84,SE,135,2.0,5.0,90,0.00,,,0.00,meteohub,2013-02-22 03:57:00,
2013-02-21 22:02:00,31.8,29.3,29.84,SE,135,3.0,5.0,90,0.00,,,0.00,meteohub,2013-02-22 04:02:00,
2013-02-21 22:07:00,31.8,29.3,29.85,SE,135,3.0,5.0,90,0.00,,,0.00,meteohub,2013-02-22 04:07:00,
2013-02-21 22:12:00,31.8,29.3,29.85,SE,135,3.0,4.0,90,0.00,,,0.00,meteohub,2013-02-22 04:12:00,
2013-02-21 22:17:00,31.8,29.3,29.85,SE,135,3.0,4.0,90,0.00,,,0.00,meteohub,2013-02-22 04:17:00,
2013-02-21 22:22:00,31.8,29.3,29.85,SE,135,3.0,4.0,90,0.00,,,0.00,meteohub,2013-02-22 04:22:00,
2013-02-21 22:27:00,31.8,29.3,29.85,SE,135,4.0,4.0,90,0.00,,,0.00,meteohub,2013-02-22 04:27:00,
2013-02-21 22:32:00,32.2,29.7,29.85,SE,135,0.0,4.0,90,0.00,,,0.00,meteohub,2013-02-22 04:32:00,
2013-02-21 22:37:00,32.0,29.5,29.85,SE,135,0.0,4.0,90,0.00,,,0.00,meteohub,2013-02-22 04:37:00,
2013-02-21 22:42:00,32.0,29.5,29.85,SE,135,6.0,6.0,90,0.00,,,0.00,meteohub,2013-02-22 04:42:00,
2013-02-21 22:47:00,32.2,29.7,29.81,SE,135,4.0,6.0,90,0.00,,,0.00,meteohub,2013-02-22 04:47:00,
2013-02-21 22:52:00,32.2,29.7,29.81,SE,135,2.0,6.0,90,0.00,,,0.00,meteohub,2013-02-22 04:52:00,
2013-02-21 22:57:00,32.2,29.7,29.81,SE,135,5.0,6.0,90,0.00,,,0.00,meteohub,2013-02-22 04:57:00,
2013-02-21 23:00:00,32.2,29.7,29.81,SE,135,3.0,6.0,90,0.00,,,0.00,meteohub,2013-02-22 05:00:00,
2013-02-21 23:01:00,32.2,29.7,29.81,SE,135,3.0,6.0,90,0.00,,,0.00,meteohub,2013-02-22 05:01:00,
2013-02-21 23:06:00,32.4,29.8,29.81,SE,135,3.0,5.0,90,0.00,,,0.00,meteohub,2013-02-22 05:06:00,
2013-02-21 23:11:00,32.4,29.8,29.81,SE,135,8.0,8.0,90,0.00,,,0.00,meteohub,2013-02-22 05:11:00,
2013-02-21 23:16:00,32.5,30.0,29.80,SE,135,6.0,8.0,90,0.00,,,0.00,meteohub,2013-02-22 05:16:00,
2013-02-21 23:21:00,32.5,30.0,29.80,SE,135,5.0,8.0,90,0.00,,,0.00,meteohub,2013-02-22 05:21:00,
2013-02-21 23:26:00,32.5,30.0,29.81,SE,135,3.0,9.0,90,0.00,,,0.00,meteohub,2013-02-22 05:26:00,
2013-02-21 23:31:00,32.5,30.0,29.81,SE,135,2.0,9.0,90,0.00,,,0.00,meteohub,2013-02-22 05:31:00,
2013-02-21 23:36:00,32.5,30.0,29.81,SE,135,2.0,9.0,90,0.00,,,0.00,meteohub,2013-02-22 05:36:00,
2013-02-21 23:41:00,32.5,30.0,29.81,SE,135,2.0,5.0,90,0.00,,,0.00,meteohub,2013-02-22 05:41:00,
2013-02-21 23:46:00,32.5,30.0,29.81,SE,135,6.0,6.0,90,0.00,,,0.00,meteohub,2013-02-22 05:46:00,
2013-02-21 23:51:00,32.7,30.2,29.81,SE,135,3.0,6.0,90,0.00,,,0.00,meteohub,2013-02-22 05:51:00,
2013-02-21 23:56:00,32.7,30.2,29.81,SE,135,4.0,6.0,90,0.00,,,0.00,meteohub,2013-02-22 05:56:00,